createdAt,value
2018-05-04T00:00:56.435Z,11.5
2018-05-04T00:01:55.541Z,11.5
2018-05-04T00:02:54.955Z,11.5
2018-05-04T00:03:54.169Z,11.5
2018-05-04T00:04:53.086Z,11.5
2018-05-04T00:05:52.512Z,11.5
2018-05-04T00:06:51.499Z,11.5
2018-05-04T00:07:22.013Z,11.5
2018-05-04T00:07:52.527Z,11.5
2018-05-04T00:08:49.845Z,11.5
2018-05-04T00:09:49.273Z,11.5
2018-05-04T00:11:47.254Z,11.5
2018-05-04T00:12:47.078Z,11.4
2018-05-04T00:14:45.288Z,11.5
2018-05-04T00:15:44.736Z,11.4
2018-05-04T00:16:43.720Z,11.4
2018-05-04T00:17:43.037Z,11.4
2018-05-04T00:18:41.844Z,11.4
2018-05-04T00:19:40.945Z,11.4
2018-05-04T00:20:40.657Z,11.4
2018-05-04T00:21:39.474Z,11.4
2018-05-04T00:22:38.901Z,11.4
2018-05-04T00:23:38.212Z,11.4
2018-05-04T00:24:37.010Z,11.4
2018-05-04T00:25:36.318Z,11.4
2018-05-04T00:26:35.526Z,11.4
2018-05-04T00:27:34.947Z,11.4
2018-05-04T00:28:34.164Z,11.4
2018-05-04T00:29:32.882Z,11.4
2018-05-04T00:30:32.191Z,11.4
2018-05-04T00:31:31.509Z,11.3
2018-05-04T00:32:30.820Z,11.3
2018-05-04T00:34:29.013Z,11.3
2018-05-04T00:35:28.445Z,11.3
2018-05-04T00:36:27.653Z,11.3
2018-05-04T00:37:26.870Z,11.3
2018-05-04T00:38:26.187Z,11.3
2018-05-04T00:39:25.394Z,11.3
2018-05-04T00:40:24.394Z,11.3
2018-05-04T00:41:23.608Z,11.3
2018-05-04T00:42:22.927Z,11.3
2018-05-04T00:43:21.622Z,11.3
2018-05-04T00:44:20.947Z,11.3
2018-05-04T00:45:20.150Z,11.3
2018-05-04T00:46:19.249Z,11.3
2018-05-04T00:47:18.561Z,11.3
2018-05-04T00:48:17.997Z,11.3
2018-05-04T00:49:17.195Z,11.3
2018-05-04T00:50:16.294Z,11.3
2018-05-04T00:51:15.510Z,11.3
2018-05-04T00:52:14.833Z,11.3
2018-05-04T00:53:14.038Z,11.2
2018-05-04T00:54:13.357Z,11.2
2018-05-04T00:55:12.286Z,11.2
2018-05-04T00:55:42.427Z,11.2
2018-05-04T00:56:13.160Z,11.2
2018-05-04T00:57:10.575Z,11.2
2018-05-04T00:58:10.000Z,11.2
2018-05-04T01:00:08.319Z,11.2
2018-05-04T01:01:07.631Z,11.2
2018-05-04T01:02:06.354Z,11.2
2018-05-04T01:04:05.168Z,11.2
2018-05-04T01:05:04.588Z,11.2
2018-05-04T01:06:03.193Z,11.2
2018-05-04T01:07:02.516Z,11.2
2018-05-04T01:08:01.829Z,11.2
2018-05-04T01:09:01.250Z,11.2
2018-05-04T01:10:59.338Z,11.2
2018-05-04T01:11:58.767Z,11.2
2018-05-04T01:12:57.473Z,11.2
2018-05-04T01:13:56.787Z,11.2
2018-05-04T01:14:56.108Z,11.2
2018-05-04T01:15:55.424Z,11.2
2018-05-04T01:16:54.731Z,11.2
2018-05-04T01:17:53.332Z,11.2
2018-05-04T01:18:53.042Z,11.2
2018-05-04T01:19:52.359Z,11.2
2018-05-04T01:20:51.266Z,11.2
2018-05-04T01:21:50.581Z,11.1
2018-05-04T01:22:49.891Z,11.1
2018-05-04T01:23:48.699Z,11.1
2018-05-04T01:24:48.010Z,11.1
2018-05-04T01:25:47.107Z,11.1
2018-05-04T01:26:17.842Z,11.1
2018-05-04T01:26:47.746Z,11.1
2018-05-04T01:27:18.477Z,11.1
2018-05-04T01:28:44.976Z,11.1
2018-05-04T01:29:44.080Z,11.1
2018-05-04T01:30:43.402Z,11.1
2018-05-04T01:31:42.723Z,11.1
2018-05-04T01:32:41.635Z,11.1
2018-05-04T01:33:40.946Z,11.1
2018-05-04T01:34:40.276Z,11.1
2018-05-04T01:35:39.095Z,11.1
2018-05-04T01:36:38.189Z,11.1
2018-05-04T01:37:08.919Z,11.1
2018-05-04T01:37:39.465Z,11.1
2018-05-04T01:38:10.200Z,11.1
2018-05-04T01:39:36.187Z,11.1
2018-05-04T01:40:35.167Z,11.1
2018-05-04T01:41:34.396Z,11.1
2018-05-04T01:42:33.828Z,11
2018-05-04T01:43:32.522Z,11
2018-05-04T01:44:31.620Z,11
2018-05-04T01:45:30.929Z,11
2018-05-04T01:46:30.246Z,11
2018-05-04T01:48:29.048Z,11
2018-05-04T01:49:27.979Z,11
2018-05-04T01:50:27.286Z,11
2018-05-04T01:51:26.596Z,11
2018-05-04T01:52:25.411Z,11
2018-05-04T01:53:24.839Z,11
2018-05-04T01:54:23.767Z,11
2018-05-04T01:55:22.996Z,11
2018-05-04T01:56:22.210Z,11
2018-05-04T01:57:21.519Z,11
2018-05-04T01:58:20.950Z,11
2018-05-04T01:59:19.759Z,11
2018-05-04T02:00:19.079Z,11
2018-05-04T02:01:18.285Z,11
2018-05-04T02:02:17.602Z,10.9
2018-05-04T02:03:16.409Z,10.9
2018-05-04T02:04:15.614Z,10.9
2018-05-04T02:05:14.937Z,10.9
2018-05-04T02:06:14.242Z,10.9
2018-05-04T02:07:13.549Z,10.9
2018-05-04T02:08:12.865Z,10.9
2018-05-04T02:09:11.467Z,10.9
2018-05-04T02:11:10.053Z,10.9
2018-05-04T02:12:09.470Z,10.9
2018-05-04T02:13:08.279Z,10.9
2018-05-04T02:14:07.695Z,10.9
2018-05-04T02:15:06.905Z,10.9
2018-05-04T02:16:06.007Z,10.9
2018-05-04T02:17:05.210Z,10.9
2018-05-04T02:18:04.534Z,10.9
2018-05-04T02:19:03.348Z,10.9
2018-05-04T02:19:33.882Z,10.9
2018-05-04T02:20:04.409Z,10.9
2018-05-04T02:21:02.220Z,10.9
2018-05-04T02:22:00.927Z,10.9
2018-05-04T02:23:00.353Z,10.9
2018-05-04T02:23:59.772Z,10.9
2018-05-04T02:24:58.697Z,10.9
2018-05-04T02:25:58.120Z,10.9
2018-05-04T02:26:56.950Z,10.9
2018-05-04T02:27:56.306Z,10.9
2018-05-04T02:28:55.739Z,10.9
2018-05-04T02:29:54.567Z,10.9
2018-05-04T02:30:53.908Z,10.9
2018-05-04T02:31:53.241Z,10.9
2018-05-04T02:32:52.027Z,10.9
2018-05-04T02:33:51.325Z,10.9
2018-05-04T02:34:50.648Z,10.9
2018-05-04T02:35:49.859Z,10.9
2018-05-04T02:37:47.851Z,10.8
2018-05-04T02:38:47.569Z,10.8
2018-05-04T02:39:46.682Z,10.9
2018-05-04T02:40:45.506Z,10.8
2018-05-04T02:41:44.759Z,10.8
2018-05-04T02:42:44.097Z,10.8
2018-05-04T02:43:43.205Z,10.8
2018-05-04T02:44:42.542Z,10.8
2018-05-04T02:45:41.859Z,10.8
2018-05-04T02:46:41.176Z,10.8
2018-05-04T02:47:39.997Z,10.8
2018-05-04T02:48:39.217Z,10.8
2018-05-04T02:49:38.421Z,10.8
2018-05-04T02:50:37.740Z,10.8
2018-05-04T02:51:36.563Z,10.8
2018-05-04T02:52:36.002Z,10.8
2018-05-04T02:53:35.322Z,10.8
2018-05-04T02:54:34.135Z,10.8
2018-05-04T02:55:33.784Z,10.8
2018-05-04T02:56:32.633Z,10.8
2018-05-04T02:57:31.855Z,10.8
2018-05-04T02:58:31.205Z,10.8
2018-05-04T02:59:30.314Z,10.7
2018-05-04T03:00:29.641Z,10.7
2018-05-04T03:01:28.466Z,10.7
2018-05-04T03:02:27.694Z,10.7
2018-05-04T03:03:27.020Z,10.7
2018-05-04T03:04:26.236Z,10.7
2018-05-04T03:04:56.869Z,10.7
2018-05-04T03:06:24.482Z,10.7
2018-05-04T03:07:23.826Z,10.7
2018-05-04T03:08:22.767Z,10.7
2018-05-04T03:09:22.004Z,10.7
2018-05-04T03:10:21.317Z,10.7
2018-05-04T03:11:20.601Z,10.7
2018-05-04T03:12:19.548Z,10.7
2018-05-04T03:13:18.974Z,10.7
2018-05-04T03:14:17.972Z,10.7
2018-05-04T03:14:48.280Z,10.7
2018-05-04T03:15:18.809Z,10.7
2018-05-04T03:15:49.221Z,10.7
2018-05-04T03:17:15.724Z,10.7
2018-05-04T03:18:14.544Z,10.7
2018-05-04T03:19:13.982Z,10.6
2018-05-04T03:20:12.948Z,10.6
2018-05-04T03:21:12.317Z,10.6
2018-05-04T03:22:11.607Z,10.6
2018-05-04T03:23:10.429Z,10.6
2018-05-04T03:24:09.737Z,10.6
2018-05-04T03:25:08.946Z,10.6
2018-05-04T03:26:08.260Z,10.6
2018-05-04T03:27:07.525Z,10.6
2018-05-04T03:28:06.226Z,10.6
2018-05-04T03:29:06.036Z,10.6
2018-05-04T03:30:04.973Z,10.6
2018-05-04T03:31:04.189Z,10.6
2018-05-04T03:32:03.312Z,10.6
2018-05-04T03:33:02.321Z,10.6
2018-05-04T03:34:01.427Z,10.6
2018-05-04T03:35:00.636Z,10.6
2018-05-04T03:35:59.911Z,10.6
2018-05-04T03:36:59.225Z,10.6
2018-05-04T03:37:58.583Z,10.6
2018-05-04T03:38:57.901Z,10.6
2018-05-04T03:39:56.611Z,10.5
2018-05-04T03:40:56.040Z,10.5
2018-05-04T03:41:54.852Z,10.5
2018-05-04T03:42:54.312Z,10.6
2018-05-04T03:43:53.222Z,10.5
2018-05-04T03:44:52.542Z,10.5
2018-05-04T03:45:51.756Z,10.5
2018-05-04T03:46:51.073Z,10.5
2018-05-04T03:47:50.392Z,10.5
2018-05-04T03:48:49.199Z,10.5
2018-05-04T03:49:48.522Z,10.5
2018-05-04T03:50:47.840Z,10.5
2018-05-04T03:51:46.945Z,10.5
2018-05-04T03:52:46.273Z,10.5
2018-05-04T03:53:45.083Z,10.5
2018-05-04T03:54:15.711Z,10.5
2018-05-04T03:54:46.331Z,10.5
2018-05-04T03:55:17.083Z,10.5
2018-05-04T03:55:47.640Z,10.5
2018-05-04T03:56:18.052Z,10.5
2018-05-04T03:56:48.799Z,10.5
2018-05-04T03:57:18.919Z,10.5
2018-05-04T03:57:49.451Z,10.5
2018-05-04T03:58:19.863Z,10.5
2018-05-04T03:59:40.317Z,10.5
2018-05-04T04:00:39.745Z,10.5
2018-05-04T04:01:38.662Z,10.5
2018-05-04T04:02:37.997Z,10.5
2018-05-04T04:03:36.991Z,10.5
2018-05-04T04:04:35.988Z,10.5
2018-05-04T04:05:35.207Z,10.5
2018-05-04T04:06:34.524Z,10.5
2018-05-04T04:07:05.037Z,10.5
2018-05-04T04:07:35.663Z,10.5
2018-05-04T04:08:06.302Z,10.5
2018-05-04T04:10:31.563Z,10.5
2018-05-04T04:11:30.160Z,10.5
2018-05-04T04:12:29.645Z,10.5
2018-05-04T04:13:29.088Z,10.5
2018-05-04T04:14:27.900Z,10.5
2018-05-04T04:15:27.333Z,10.5
2018-05-04T04:16:26.550Z,10.5
2018-05-04T04:17:25.861Z,10.5
2018-05-04T04:18:24.788Z,10.6
2018-05-04T04:19:23.675Z,10.5
2018-05-04T04:20:23.003Z,10.5
2018-05-04T04:21:22.271Z,10.6
2018-05-04T04:22:21.490Z,10.6
2018-05-04T04:23:20.704Z,10.5
2018-05-04T04:24:20.025Z,10.5
2018-05-04T04:25:18.949Z,10.5
2018-05-04T04:26:18.272Z,10.5
2018-05-04T04:28:17.173Z,10.6
2018-05-04T04:29:15.494Z,10.6
2018-05-04T04:30:14.812Z,10.6
2018-05-04T04:31:14.029Z,10.6
2018-05-04T04:32:13.343Z,10.6
2018-05-04T04:33:12.667Z,10.6
2018-05-04T04:34:11.372Z,10.6
2018-05-04T04:35:10.577Z,10.6
2018-05-04T04:36:09.891Z,10.6
2018-05-04T04:36:40.130Z,10.6
2018-05-04T04:37:10.767Z,10.6
2018-05-04T04:37:41.404Z,10.6
2018-05-04T04:39:07.404Z,10.6
2018-05-04T04:41:05.600Z,10.6
2018-05-04T04:42:04.812Z,10.6
2018-05-04T04:43:03.929Z,10.6
2018-05-04T04:44:02.930Z,10.6
2018-05-04T04:45:02.427Z,10.6
2018-05-04T04:46:01.639Z,10.6
2018-05-04T04:47:00.971Z,10.6
2018-05-04T04:48:00.406Z,10.6
2018-05-04T04:48:31.036Z,10.6
2018-05-04T04:49:01.679Z,10.6
2018-05-04T04:49:58.492Z,10.6
2018-05-04T04:50:57.929Z,10.7
2018-05-04T04:51:56.641Z,10.7
2018-05-04T04:52:56.076Z,10.7
2018-05-04T04:53:55.420Z,10.7
2018-05-04T04:54:54.341Z,10.7
2018-05-04T04:55:53.793Z,10.7
2018-05-04T04:57:52.003Z,10.7
2018-05-04T04:58:51.213Z,10.7
2018-05-04T04:59:50.321Z,10.7
2018-05-04T05:00:49.644Z,10.7
2018-05-04T05:01:49.220Z,10.7
2018-05-04T05:02:47.582Z,10.7
2018-05-04T05:03:46.901Z,10.7
2018-05-04T05:04:46.323Z,10.8
2018-05-04T05:05:45.027Z,10.8
2018-05-04T05:06:44.237Z,10.8
2018-05-04T05:07:43.441Z,10.8
2018-05-04T05:08:42.865Z,10.8
2018-05-04T05:09:41.978Z,10.8
2018-05-04T05:10:40.975Z,10.8
2018-05-04T05:11:40.175Z,10.8
2018-05-04T05:12:39.505Z,10.8
2018-05-04T05:13:38.495Z,10.9
2018-05-04T05:14:37.831Z,10.9
2018-05-04T05:15:37.041Z,10.9
2018-05-04T05:16:36.365Z,10.9
2018-05-04T05:18:34.236Z,10.9
2018-05-04T05:19:34.138Z,10.9
2018-05-04T05:21:32.343Z,10.9
2018-05-04T05:22:31.056Z,10.9
2018-05-04T05:23:30.553Z,10.9
2018-05-04T05:24:29.769Z,10.9
2018-05-04T05:25:29.196Z,10.9
2018-05-04T05:26:27.796Z,10.9
2018-05-04T05:28:26.626Z,10.9
2018-05-04T05:29:25.201Z,10.9
2018-05-04T05:30:24.820Z,10.9
2018-05-04T05:31:23.939Z,11
2018-05-04T05:32:23.258Z,11
2018-05-04T05:32:53.391Z,11
2018-05-04T05:33:24.173Z,10.9
2018-05-04T05:34:21.594Z,10.9
2018-05-04T05:35:20.907Z,10.9
2018-05-04T05:36:19.840Z,10.9
2018-05-04T05:37:19.268Z,11
2018-05-04T05:38:18.593Z,11
2018-05-04T05:39:17.405Z,11
2018-05-04T05:40:16.720Z,11
2018-05-04T05:41:16.037Z,11
2018-05-04T05:42:14.853Z,11
2018-05-04T05:42:45.585Z,11
2018-05-04T05:44:13.599Z,11
2018-05-04T05:45:12.302Z,11.1
2018-05-04T05:46:11.622Z,11.1
2018-05-04T05:47:10.954Z,11.1
2018-05-04T05:48:10.269Z,11.1
2018-05-04T05:50:08.473Z,11.1
2018-05-04T05:51:07.467Z,11.1
2018-05-04T05:52:06.678Z,11.1
2018-05-04T05:53:06.029Z,11.1
2018-05-04T05:54:05.348Z,11.1
2018-05-04T05:55:04.776Z,11.1
2018-05-04T05:56:03.260Z,11.2
2018-05-04T05:57:02.900Z,11.2
2018-05-04T05:58:02.607Z,11.2
2018-05-04T05:59:00.861Z,11.3
2018-05-04T06:00:00.091Z,11.3
2018-05-04T06:00:59.524Z,11.3
2018-05-04T06:01:58.634Z,11.3
2018-05-04T06:02:57.843Z,11.3
2018-05-04T06:03:57.407Z,11.3
2018-05-04T06:04:56.467Z,11.4
2018-05-04T06:05:55.570Z,11.3
2018-05-04T06:06:54.786Z,11.3
2018-05-04T06:07:54.000Z,11.4
2018-05-04T06:08:53.110Z,11.4
2018-05-04T06:09:52.542Z,11.4
2018-05-04T06:10:51.357Z,11.3
2018-05-04T06:12:50.051Z,11.4
2018-05-04T06:13:48.859Z,11.4
2018-05-04T06:14:19.382Z,11.4
2018-05-04T06:15:47.293Z,11.4
2018-05-04T06:16:46.394Z,11.5
2018-05-04T06:17:45.706Z,11.5
2018-05-04T06:18:44.700Z,11.5
2018-05-04T06:19:44.030Z,11.5
2018-05-04T06:20:43.346Z,11.5
2018-05-04T06:21:42.571Z,11.6
2018-05-04T06:23:40.841Z,11.6
2018-05-04T06:24:40.164Z,11.6
2018-05-04T06:25:11.109Z,11.6
2018-05-04T06:26:38.622Z,11.6
2018-05-04T06:27:37.826Z,11.6
2018-05-04T06:28:37.141Z,11.7
2018-05-04T06:29:35.735Z,11.7
2018-05-04T06:30:35.677Z,11.7
2018-05-04T06:31:34.501Z,11.7
2018-05-04T06:32:33.718Z,11.7
2018-05-04T06:33:32.919Z,11.7
2018-05-04T06:34:32.021Z,11.7
2018-05-04T06:35:31.117Z,11.7
2018-05-04T06:36:30.330Z,11.8
2018-05-04T06:37:29.539Z,11.7
2018-05-04T06:38:28.644Z,11.7
2018-05-04T06:39:28.365Z,11.7
2018-05-04T06:40:27.296Z,11.6
2018-05-04T06:41:26.397Z,11.6
2018-05-04T06:42:25.718Z,11.6
2018-05-04T06:43:25.029Z,11.6
2018-05-04T06:44:24.450Z,11.6
2018-05-04T06:45:22.942Z,11.6
2018-05-04T06:46:22.767Z,11.5
2018-05-04T06:47:21.582Z,11.5
2018-05-04T06:48:20.687Z,11.6
2018-05-04T06:49:20.009Z,11.6
2018-05-04T06:50:19.446Z,11.6
2018-05-04T06:51:18.874Z,11.6
2018-05-04T06:52:17.827Z,11.6
2018-05-04T06:53:17.523Z,11.6
2018-05-04T06:54:15.938Z,11.6
2018-05-04T06:55:15.169Z,11.6
2018-05-04T06:56:14.376Z,11.6
2018-05-04T06:57:13.260Z,11.6
2018-05-04T06:58:13.081Z,11.6
2018-05-04T06:59:11.674Z,11.6
2018-05-04T07:00:11.391Z,11.6
2018-05-04T07:01:10.821Z,11.6
2018-05-04T07:02:09.419Z,11.6
2018-05-04T07:03:08.636Z,11.6
2018-05-04T07:04:07.922Z,11.6
2018-05-04T07:05:07.031Z,11.6
2018-05-04T07:06:06.358Z,11.6
2018-05-04T07:07:05.677Z,11.6
2018-05-04T07:08:04.886Z,11.6
2018-05-04T07:09:05.105Z,11.7
2018-05-04T07:10:03.035Z,11.7
2018-05-04T07:11:02.481Z,11.7
2018-05-04T07:12:01.469Z,11.7
2018-05-04T07:13:00.806Z,11.7
2018-05-04T07:14:00.013Z,11.8
2018-05-04T07:14:59.564Z,11.8
2018-05-04T07:15:58.175Z,11.8
2018-05-04T07:16:57.487Z,11.8
2018-05-04T07:17:56.917Z,11.8
2018-05-04T07:19:55.522Z,11.8
2018-05-04T07:20:54.444Z,11.8
2018-05-04T07:21:53.761Z,11.8
2018-05-04T07:22:53.071Z,11.8
2018-05-04T07:23:52.167Z,11.9
2018-05-04T07:24:51.597Z,11.9
2018-05-04T07:25:50.410Z,11.9
2018-05-04T07:26:49.613Z,11.9
2018-05-04T07:27:48.719Z,12
2018-05-04T07:28:48.945Z,12
2018-05-04T07:29:47.266Z,12
2018-05-04T07:30:46.684Z,12.1
2018-05-04T07:31:45.494Z,12.1
2018-05-04T07:32:44.819Z,12.1
2018-05-04T07:33:44.143Z,12.2
2018-05-04T07:34:43.352Z,12.2
2018-05-04T07:35:42.831Z,12.2
2018-05-04T07:36:41.529Z,12.2
2018-05-04T07:37:40.948Z,12.2
2018-05-04T07:38:40.263Z,12.2
2018-05-04T07:39:39.367Z,12.2
2018-05-04T07:40:38.809Z,12.3
2018-05-04T07:41:37.530Z,12.3
2018-05-04T07:42:36.631Z,12.3
2018-05-04T07:43:36.230Z,12.3
2018-05-04T07:44:35.331Z,12.4
2018-05-04T07:46:33.421Z,12.4
2018-05-04T07:47:32.844Z,12.4
2018-05-04T07:48:32.057Z,12.4
2018-05-04T07:49:31.371Z,12.5
2018-05-04T07:50:30.585Z,12.5
2018-05-04T07:53:28.288Z,12.6
2018-05-04T07:54:27.489Z,12.7
2018-05-04T07:55:26.694Z,12.7
2018-05-04T07:57:24.894Z,12.8
2018-05-04T07:59:23.604Z,13
2018-05-04T08:01:21.696Z,13.2
2018-05-04T08:02:20.924Z,13.2
2018-05-04T08:04:19.736Z,13.4
2018-05-04T08:05:18.334Z,13.5
2018-05-04T08:05:48.749Z,13.5
2018-05-04T08:08:16.434Z,13.5
2018-05-04T08:09:15.752Z,13.5
2018-05-04T08:10:14.573Z,13.5
2018-05-04T08:11:13.781Z,13.4
2018-05-04T08:12:13.099Z,13.4
2018-05-04T08:13:12.094Z,13.4
2018-05-04T08:14:11.561Z,13.4
2018-05-04T08:15:10.771Z,13.4
2018-05-04T08:16:10.091Z,13.3
2018-05-04T08:18:08.294Z,13.4
2018-05-04T08:19:07.497Z,13.4
2018-05-04T08:20:07.196Z,13.4
2018-05-04T08:21:06.222Z,13.2
2018-05-04T08:22:05.208Z,13.3
2018-05-04T08:23:04.303Z,13.2
2018-05-04T08:25:02.797Z,13.2
2018-05-04T08:26:01.906Z,13.2
2018-05-04T08:27:01.118Z,13.2
2018-05-04T08:28:00.327Z,13.2
2018-05-04T08:28:59.754Z,13.2
2018-05-04T08:29:59.066Z,13.2
2018-05-04T08:30:58.487Z,13.2
2018-05-04T08:31:57.309Z,13.2
2018-05-04T08:33:56.012Z,13.2
2018-05-04T08:34:55.330Z,13.3
2018-05-04T08:35:54.540Z,13.3
2018-05-04T08:36:53.960Z,13.4
2018-05-04T08:37:52.882Z,13.4
2018-05-04T08:38:52.199Z,13.4
2018-05-04T08:39:51.509Z,13.4
2018-05-04T08:40:51.165Z,13.5
2018-05-04T08:41:49.583Z,13.4
2018-05-04T08:42:48.960Z,13.5
2018-05-04T08:43:48.171Z,13.5
2018-05-04T08:44:47.382Z,13.5
2018-05-04T08:46:46.431Z,13.6
2018-05-04T08:47:45.363Z,13.6
2018-05-04T08:48:44.285Z,13.6
2018-05-04T08:49:43.388Z,13.7
2018-05-04T08:50:42.876Z,13.7
2018-05-04T08:51:42.083Z,13.8
2018-05-04T08:53:40.568Z,13.9
2018-05-04T08:54:39.994Z,13.9
2018-05-04T08:55:38.918Z,14
2018-05-04T08:56:38.020Z,13.9
2018-05-04T08:57:37.575Z,14
2018-05-04T08:58:36.937Z,14
2018-05-04T08:59:35.855Z,14.1
2018-05-04T09:00:34.965Z,14.1
2018-05-04T09:02:33.565Z,14.3
2018-05-04T09:03:32.892Z,14.3
2018-05-04T09:05:31.590Z,14.3
2018-05-04T09:06:30.652Z,14.4
2018-05-04T09:07:29.867Z,14.5
2018-05-04T09:08:29.081Z,14.5
2018-05-04T09:09:28.509Z,14.6
2018-05-04T09:11:26.705Z,14.7
2018-05-04T09:13:25.520Z,14.7
2018-05-04T09:14:24.448Z,14.7
2018-05-04T09:15:23.771Z,14.7
2018-05-04T09:16:22.873Z,14.7
2018-05-04T09:17:22.077Z,14.7
2018-05-04T09:18:21.708Z,14.6
2018-05-04T09:19:21.030Z,14.7
2018-05-04T09:20:19.855Z,14.7
2018-05-04T09:21:19.073Z,14.7
2018-05-04T09:22:18.280Z,14.8
2018-05-04T09:24:17.087Z,14.7
2018-05-04T09:25:16.784Z,14.7
2018-05-04T09:26:15.716Z,14.8
2018-05-04T09:27:14.925Z,14.8
2018-05-04T09:28:14.446Z,14.8
2018-05-04T09:29:13.392Z,14.8
2018-05-04T09:30:12.704Z,14.9
2018-05-04T09:31:11.925Z,15
2018-05-04T09:32:11.344Z,15
2018-05-04T09:33:10.273Z,15
2018-05-04T09:34:09.618Z,15
2018-05-04T09:36:08.482Z,15
2018-05-04T09:37:07.095Z,15
2018-05-04T09:38:06.690Z,15
2018-05-04T09:39:05.784Z,15
2018-05-04T09:41:04.507Z,14.9
2018-05-04T09:41:35.028Z,14.9
2018-05-04T09:43:02.720Z,15
2018-05-04T09:43:33.805Z,15
2018-05-04T09:45:01.426Z,15.1
2018-05-04T09:46:00.634Z,15
2018-05-04T09:47:00.074Z,15
2018-05-04T09:47:59.169Z,15.1
2018-05-04T09:48:58.859Z,15.1
2018-05-04T09:49:57.460Z,15.2
2018-05-04T09:50:57.171Z,15.2
2018-05-04T09:51:56.277Z,15.3
2018-05-04T09:52:55.599Z,15.3
2018-05-04T09:53:54.806Z,15.2
2018-05-04T09:54:54.127Z,15.3
2018-05-04T09:55:53.602Z,15.3
2018-05-04T09:56:52.941Z,15.3
2018-05-04T09:58:51.035Z,15.5
2018-05-04T09:59:50.973Z,15.6
2018-05-04T10:00:49.683Z,15.6
2018-05-04T10:01:49.509Z,15.6
2018-05-04T10:02:48.111Z,15.6
2018-05-04T10:03:47.931Z,15.6
2018-05-04T10:06:45.638Z,15.8
2018-05-04T10:07:44.747Z,15.8
2018-05-04T10:08:43.952Z,15.9
2018-05-04T10:09:43.050Z,15.8
2018-05-04T10:10:42.544Z,15.9
2018-05-04T10:11:41.767Z,16
2018-05-04T10:12:41.076Z,16
2018-05-04T10:13:40.281Z,16.1
2018-05-04T10:14:39.397Z,16.1
2018-05-04T10:16:38.382Z,16.1
2018-05-04T10:17:37.590Z,16.2
2018-05-04T10:18:36.907Z,16.1
2018-05-04T10:19:36.114Z,16.1
2018-05-04T10:20:35.318Z,16.1
2018-05-04T10:21:34.743Z,16
2018-05-04T10:22:33.851Z,16
2018-05-04T10:23:33.259Z,15.8
2018-05-04T10:24:03.523Z,15.8
2018-05-04T10:24:33.771Z,15.8
2018-05-04T10:25:03.683Z,15.8
2018-05-04T10:25:34.419Z,15.9
2018-05-04T10:26:04.835Z,15.9
2018-05-04T10:27:30.620Z,15.9
2018-05-04T10:29:29.217Z,15.9
2018-05-04T10:30:28.537Z,15.9
2018-05-04T10:31:28.078Z,15.9
2018-05-04T10:33:26.359Z,15.9
2018-05-04T10:34:25.245Z,16
2018-05-04T10:34:55.795Z,16
2018-05-04T10:35:26.220Z,16
2018-05-04T10:35:56.850Z,16
2018-05-04T10:37:23.526Z,16.1
2018-05-04T10:38:23.043Z,16.1
2018-05-04T10:39:22.478Z,16.2
2018-05-04T10:40:21.247Z,16.2
2018-05-04T10:41:20.864Z,16.2
2018-05-04T10:42:20.078Z,16.3
2018-05-04T10:43:19.179Z,16.4
2018-05-04T10:44:18.389Z,16.4
2018-05-04T10:45:17.600Z,16.4
2018-05-04T10:47:16.262Z,16.5
2018-05-04T10:48:15.586Z,16.4
2018-05-04T10:49:14.789Z,16.4
2018-05-04T10:50:14.504Z,16.5
2018-05-04T10:51:13.601Z,16.5
2018-05-04T10:52:12.948Z,16.4
2018-05-04T10:53:12.268Z,16.5
2018-05-04T10:54:11.688Z,16.6
2018-05-04T10:55:11.004Z,16.6
2018-05-04T10:56:10.298Z,16.7
2018-05-04T10:58:09.079Z,16.8
2018-05-04T10:59:08.285Z,16.7
2018-05-04T11:00:07.598Z,16.7
2018-05-04T11:01:06.803Z,16.7
2018-05-04T11:03:05.402Z,16.3
2018-05-04T11:04:04.825Z,16.4
2018-05-04T11:07:02.305Z,16.3
2018-05-04T11:08:01.803Z,16.3
2018-05-04T11:09:01.115Z,16.2
2018-05-04T11:10:00.723Z,16.3
2018-05-04T11:10:59.825Z,16.4
2018-05-04T11:11:59.237Z,16.3
2018-05-04T11:12:58.682Z,16.3
2018-05-04T11:14:57.285Z,16.2
2018-05-04T11:15:56.593Z,16.3
2018-05-04T11:16:55.916Z,16.4
2018-05-04T11:17:55.236Z,16.5
2018-05-04T11:18:54.551Z,16.5
2018-05-04T11:19:53.861Z,16.5
2018-05-04T11:20:53.285Z,16.5
2018-05-04T11:21:52.389Z,16.6
2018-05-04T11:22:23.130Z,16.6
2018-05-04T11:22:53.547Z,16.7
2018-05-04T11:23:50.761Z,16.7
2018-05-04T11:24:50.076Z,16.8
2018-05-04T11:25:49.176Z,16.8
2018-05-04T11:26:49.098Z,16.9
2018-05-04T11:27:48.530Z,16.9
2018-05-04T11:28:47.248Z,17
2018-05-04T11:29:47.179Z,17
2018-05-04T11:30:45.888Z,17
2018-05-04T11:31:45.709Z,16.9
2018-05-04T11:32:16.335Z,16.9
2018-05-04T11:32:46.472Z,16.8
2018-05-04T11:33:17.010Z,16.8
2018-05-04T11:34:43.511Z,16.7
2018-05-04T11:35:42.821Z,16.7
2018-05-04T11:37:41.528Z,16.7
2018-05-04T11:38:40.840Z,16.7
2018-05-04T11:39:39.938Z,16.7
2018-05-04T11:40:39.143Z,16.7
2018-05-04T11:41:38.464Z,16.7
2018-05-04T11:42:37.878Z,16.8
2018-05-04T11:44:36.588Z,16.8
2018-05-04T11:45:35.591Z,16.8
2018-05-04T11:46:35.531Z,16.9
2018-05-04T11:47:34.960Z,16.9
2018-05-04T11:48:33.969Z,16.9
2018-05-04T11:49:33.562Z,16.9
2018-05-04T11:51:32.261Z,16.9
2018-05-04T11:52:30.964Z,16.8
2018-05-04T11:53:30.684Z,16.9
2018-05-04T11:54:29.995Z,16.9
2018-05-04T11:56:28.479Z,16.8
2018-05-04T11:57:27.793Z,16.8
2018-05-04T11:58:27.112Z,16.8
2018-05-04T12:00:25.709Z,16.8
2018-05-04T12:01:25.143Z,16.9
2018-05-04T12:02:24.742Z,16.9
2018-05-04T12:04:23.147Z,16.8
2018-05-04T12:04:54.017Z,16.8
2018-05-04T12:05:23.929Z,16.7
2018-05-04T12:07:21.124Z,16.7
2018-05-04T12:08:20.479Z,16.8
2018-05-04T12:09:19.699Z,16.8
2018-05-04T12:10:18.814Z,16.9
2018-05-04T12:13:16.798Z,16.7
2018-05-04T12:14:16.666Z,16.8
2018-05-04T12:14:47.079Z,16.8
2018-05-04T12:16:15.171Z,16.9
2018-05-04T12:17:14.599Z,16.8
2018-05-04T12:18:13.801Z,16.9
2018-05-04T12:19:13.008Z,16.9
2018-05-04T12:20:12.108Z,17
2018-05-04T12:21:11.428Z,17.1
2018-05-04T12:23:10.205Z,17.2
2018-05-04T12:25:08.803Z,17.3
2018-05-04T12:26:08.127Z,17.3
2018-05-04T12:27:07.448Z,17.2
2018-05-04T12:28:06.765Z,17.3
2018-05-04T12:29:06.369Z,17.3
2018-05-04T12:31:04.974Z,17.1
2018-05-04T12:32:04.193Z,17
2018-05-04T12:34:03.008Z,17
2018-05-04T12:35:02.221Z,17
2018-05-04T12:36:01.533Z,17.1
2018-05-04T12:37:00.992Z,17.2
2018-05-04T12:38:00.304Z,17.1
2018-05-04T12:38:59.616Z,17
2018-05-04T12:39:58.725Z,17
2018-05-04T12:40:58.038Z,17.1
2018-05-04T12:41:57.455Z,17
2018-05-04T12:42:56.781Z,17.1
2018-05-04T12:43:56.211Z,17.2
2018-05-04T12:44:55.432Z,17.1
2018-05-04T12:47:53.519Z,17.2
2018-05-04T12:48:52.954Z,17.3
2018-05-04T12:49:52.160Z,17.2
2018-05-04T12:50:51.635Z,17.1
2018-05-04T12:51:50.839Z,17.1
2018-05-04T12:53:50.039Z,17.3
2018-05-04T12:54:49.060Z,17.4
2018-05-04T12:55:48.285Z,17.4
2018-05-04T12:56:47.607Z,17.4
2018-05-04T12:57:46.920Z,17.4
2018-05-04T12:58:45.914Z,17.5
2018-05-04T12:59:45.525Z,17.2
2018-05-04T13:00:44.849Z,17.2
2018-05-04T13:01:43.950Z,17.3
2018-05-04T13:02:43.876Z,17.2
2018-05-04T13:04:42.066Z,17.3
2018-05-04T13:05:41.783Z,17.3
2018-05-04T13:06:40.997Z,17.2
2018-05-04T13:08:39.702Z,17.2
2018-05-04T13:09:39.015Z,17.2
2018-05-04T13:10:38.436Z,17.3
2018-05-04T13:11:37.340Z,17.4
2018-05-04T13:12:36.942Z,17.4
2018-05-04T13:13:36.161Z,17.3
2018-05-04T13:14:35.373Z,17.3
2018-05-04T13:16:34.093Z,17.5
2018-05-04T13:17:33.865Z,17.5
2018-05-04T13:19:32.568Z,17.5
2018-05-04T13:21:31.037Z,17.5
2018-05-04T13:22:30.243Z,17.5
2018-05-04T13:23:29.565Z,17.4
2018-05-04T13:24:28.997Z,17.4
2018-05-04T13:26:27.713Z,17.2
2018-05-04T13:27:26.813Z,17.2
2018-05-04T13:28:26.637Z,17.3
2018-05-04T13:30:25.356Z,17.3
2018-05-04T13:31:24.469Z,17.3
2018-05-04T13:33:23.615Z,17.2
2018-05-04T13:34:22.552Z,17.2
2018-05-04T13:35:21.769Z,17.2
2018-05-04T13:36:21.090Z,17.2
2018-05-04T13:38:19.698Z,17.3
2018-05-04T13:39:19.012Z,17.3
2018-05-04T13:40:18.451Z,17.3
2018-05-04T13:41:17.676Z,17.4
2018-05-04T13:42:17.508Z,17.3
2018-05-04T13:43:16.500Z,17.4
2018-05-04T13:44:15.936Z,17.3
2018-05-04T13:45:15.261Z,17.4
2018-05-04T13:48:13.248Z,17.4
2018-05-04T13:49:12.672Z,17.4
2018-05-04T13:50:11.888Z,17.5
2018-05-04T13:51:11.294Z,17.5
2018-05-04T13:52:10.739Z,17.4
2018-05-04T13:53:09.839Z,17.4
2018-05-04T13:54:09.260Z,17.4
2018-05-04T13:55:08.696Z,17.3
2018-05-04T13:56:08.116Z,17.3
2018-05-04T13:57:07.221Z,17.4
2018-05-04T13:58:06.541Z,17.4
2018-05-04T13:58:37.180Z,17.4
2018-05-04T14:00:05.072Z,17.4
2018-05-04T14:01:05.294Z,17.3
2018-05-04T14:02:04.131Z,17.3
2018-05-04T14:03:03.457Z,17.2
2018-05-04T14:06:01.442Z,17.3
2018-05-04T14:07:00.658Z,17.3
2018-05-04T14:07:59.975Z,17.2
2018-05-04T14:08:59.299Z,17.2
2018-05-04T14:09:29.933Z,17.2
2018-05-04T14:10:00.349Z,17.2
2018-05-04T14:10:58.142Z,17.2
2018-05-04T14:11:57.471Z,17.2